createdAt,value
2023-04-04T00:02:45.145Z,3.15
2023-04-04T00:05:33.323Z,3.72
2023-04-04T00:08:21.840Z,3.58
2023-04-04T00:11:09.397Z,3.80
2023-04-04T00:13:57.304Z,3.25
2023-04-04T00:16:45.139Z,3.35
2023-04-04T00:19:32.624Z,3.72
2023-04-04T00:22:20.481Z,3.38
2023-04-04T00:25:08.679Z,3.65
2023-04-04T00:28:00.963Z,3.63
2023-04-04T00:30:48.964Z,3.50
2023-04-04T00:33:37.195Z,3.30
2023-04-04T00:36:24.868Z,3.70
2023-04-04T00:39:12.484Z,3.50
2023-04-04T00:42:00.291Z,3.67
2023-04-04T00:44:48.163Z,3.90
2023-04-04T00:47:40.780Z,3.90
2023-04-04T00:50:28.487Z,3.72
2023-04-04T00:53:16.439Z,3.97
2023-04-04T00:56:04.144Z,4.28
2023-04-04T00:58:52.051Z,4.18
2023-04-04T01:01:39.718Z,3.95
2023-04-04T01:04:29.514Z,4.88
2023-04-04T01:07:17.404Z,4.22
2023-04-04T01:10:05.610Z,5.15
2023-04-04T01:12:53.435Z,4.57
2023-04-04T01:15:41.237Z,4.88
2023-04-04T01:18:29.448Z,5.40
2023-04-04T01:21:18.398Z,5.60
2023-04-04T01:24:09.271Z,5.93
2023-04-04T01:27:07.654Z,5.45
2023-04-04T01:29:56.141Z,4.82
2023-04-04T01:33:05.662Z,5.18
2023-04-04T01:36:10.041Z,5.97
2023-04-04T01:39:28.490Z,4.55
2023-04-04T01:42:17.127Z,5.80
2023-04-04T01:45:08.110Z,5.22
2023-04-04T01:47:57.252Z,6.22
2023-04-04T01:50:45.035Z,5.38
2023-04-04T01:53:32.918Z,5.38
2023-04-04T01:56:20.583Z,5.88
2023-04-04T01:59:09.222Z,6.55
2023-04-04T02:01:57.797Z,6.07
2023-04-04T02:04:45.417Z,6.28
2023-04-04T02:07:33.332Z,6.80
2023-04-04T02:10:21.073Z,6.45
2023-04-04T02:13:08.699Z,6.65
2023-04-04T02:15:56.406Z,6.80
2023-04-04T02:18:44.269Z,7.40
2023-04-04T02:21:31.938Z,6.40
2023-04-04T02:24:19.795Z,7.20
2023-04-04T02:27:10.633Z,6.80
2023-04-04T02:30:00.867Z,8.00
2023-04-04T02:32:49.230Z,8.13
2023-04-04T02:35:39.726Z,8.10
2023-04-04T02:38:30.219Z,8.07
2023-04-04T02:41:18.239Z,7.97
2023-04-04T02:44:12.409Z,8.15
2023-04-04T02:47:00.796Z,8.20
2023-04-04T02:49:48.714Z,8.13
2023-04-04T02:52:37.171Z,7.75
2023-04-04T02:55:25.371Z,8.82
2023-04-04T02:58:15.633Z,8.68
2023-04-04T03:01:09.700Z,8.43
2023-04-04T03:04:02.664Z,8.48
2023-04-04T03:06:52.802Z,7.93
2023-04-04T03:09:52.521Z,8.75
2023-04-04T03:12:49.267Z,7.55
2023-04-04T03:15:49.918Z,8.85
2023-04-04T03:18:49.438Z,8.85
2023-04-04T03:21:43.609Z,8.85
2023-04-04T03:24:33.910Z,8.82
2023-04-04T03:27:30.099Z,8.55
2023-04-04T03:30:18.510Z,8.30
2023-04-04T03:33:10.468Z,8.52
2023-04-04T03:35:59.012Z,8.32
2023-04-04T03:38:50.037Z,8.48
2023-04-04T03:41:43.162Z,7.97
2023-04-04T03:44:31.245Z,8.35
2023-04-04T03:47:25.519Z,8.30
2023-04-04T03:50:13.447Z,8.32
2023-04-04T03:53:01.285Z,7.75
2023-04-04T03:55:52.067Z,7.72
2023-04-04T03:58:40.719Z,8.05
2023-04-04T04:01:28.446Z,7.30
2023-04-04T04:04:16.059Z,7.45
2023-04-04T04:07:06.123Z,8.40
2023-04-04T04:09:53.792Z,8.00
2023-04-04T04:12:41.855Z,7.88
2023-04-04T04:15:29.897Z,7.72
2023-04-04T04:18:17.489Z,7.75
2023-04-04T04:21:05.451Z,7.93
2023-04-04T04:23:53.337Z,7.43
2023-04-04T04:26:41.594Z,7.72
2023-04-04T04:29:30.246Z,8.60
2023-04-04T04:32:19.789Z,9.00
2023-04-04T04:35:08.354Z,7.88
2023-04-04T04:38:02.701Z,8.73
2023-04-04T04:40:51.418Z,8.77
2023-04-04T04:46:20.669Z,8.13
2023-04-04T04:49:12.184Z,8.77
2023-04-04T04:52:03.222Z,9.20
2023-04-04T04:54:56.418Z,8.77
2023-04-04T04:57:47.803Z,9.27
2023-04-04T05:00:35.884Z,8.80
2023-04-04T05:03:23.989Z,9.38
2023-04-04T05:06:12.442Z,9.88
2023-04-04T05:09:02.493Z,20.15
2023-04-04T05:11:50.509Z,23.75
2023-04-04T05:14:38.357Z,19.48
2023-04-04T05:17:26.313Z,23.45
2023-04-04T05:20:14.276Z,17.95
2023-04-04T05:23:02.407Z,13.60
2023-04-04T05:25:52.231Z,10.70
2023-04-04T05:28:41.206Z,11.35
2023-04-04T05:31:29.254Z,9.32
2023-04-04T05:34:17.162Z,9.38
2023-04-04T05:37:05.301Z,9.20
2023-04-04T05:39:56.094Z,7.82
2023-04-04T05:42:44.744Z,7.75
2023-04-04T05:45:32.734Z,7.18
2023-04-04T05:48:21.195Z,6.80
2023-04-04T05:51:10.341Z,7.43
2023-04-04T05:53:59.509Z,6.80
2023-04-04T05:56:47.729Z,6.80
2023-04-04T05:59:35.578Z,6.20
2023-04-04T06:02:25.798Z,6.13
2023-04-04T06:05:13.736Z,6.88
2023-04-04T06:08:01.808Z,6.13
2023-04-04T06:10:49.712Z,5.85
2023-04-04T06:13:37.762Z,5.22
2023-04-04T06:16:26.683Z,6.03
2023-04-04T06:19:18.185Z,5.78
2023-04-04T06:22:07.161Z,5.45
2023-04-04T06:24:57.583Z,5.90
2023-04-04T06:27:47.816Z,4.60
2023-04-04T06:30:41.891Z,4.57
2023-04-04T06:36:17.879Z,4.80
2023-04-04T06:39:08.188Z,4.60
2023-04-04T06:41:59.154Z,4.40
2023-04-04T06:44:47.240Z,4.53
2023-04-04T06:47:35.530Z,4.68
2023-04-04T06:50:23.754Z,3.60
2023-04-04T06:53:12.319Z,4.63
2023-04-04T06:56:05.991Z,4.20
2023-04-04T06:58:54.267Z,5.28
2023-04-04T07:01:46.320Z,4.25
2023-04-04T07:07:16.589Z,3.20
2023-04-04T07:10:04.665Z,3.72
2023-04-04T07:12:52.675Z,4.38
2023-04-04T07:15:40.734Z,4.35
2023-04-04T07:18:28.491Z,3.60
2023-04-04T07:21:17.860Z,3.55
2023-04-04T07:24:05.847Z,4.10
2023-04-04T07:26:53.490Z,3.75
2023-04-04T07:29:43.423Z,3.58
2023-04-04T07:32:31.390Z,3.80
2023-04-04T07:35:22.296Z,3.65
2023-04-04T07:38:10.498Z,3.75
2023-04-04T07:40:59.477Z,3.60
2023-04-04T07:43:47.462Z,3.50
2023-04-04T07:46:35.413Z,3.30
2023-04-04T07:49:23.390Z,3.83
2023-04-04T07:52:14.289Z,3.20
2023-04-04T07:55:03.542Z,3.33
2023-04-04T07:57:52.524Z,3.35
2023-04-04T08:00:40.594Z,3.20
2023-04-04T08:03:28.556Z,3.28
2023-04-04T08:06:16.582Z,3.33
2023-04-04T08:09:05.566Z,3.22
2023-04-04T08:11:58.081Z,3.50
2023-04-04T08:14:50.625Z,3.65
2023-04-04T08:18:04.460Z,3.53
2023-04-04T08:21:08.805Z,3.50
2023-04-04T08:23:56.707Z,3.45
2023-04-04T08:26:58.303Z,3.40
2023-04-04T08:29:52.777Z,3.67
2023-04-04T08:32:49.210Z,3.00
2023-04-04T08:35:37.368Z,3.05
2023-04-04T08:38:25.205Z,2.85
2023-04-04T08:41:13.763Z,3.22
2023-04-04T08:44:06.226Z,2.78
2023-04-04T08:46:59.364Z,3.38
2023-04-04T08:49:50.225Z,3.55
2023-04-04T08:52:39.539Z,2.95
2023-04-04T08:55:30.156Z,3.00
2023-04-04T08:58:17.982Z,3.13
2023-04-04T09:01:07.213Z,3.00
2023-04-04T09:04:04.817Z,2.90
2023-04-04T09:06:53.301Z,3.17
2023-04-04T09:09:44.153Z,2.97
2023-04-04T09:12:39.398Z,2.70
2023-04-04T09:15:28.389Z,2.75
2023-04-04T09:18:16.797Z,2.80
2023-04-04T09:21:12.203Z,2.92
2023-04-04T09:24:08.282Z,2.92
2023-04-04T09:26:58.297Z,2.47
2023-04-04T09:29:48.571Z,2.97
2023-04-04T09:32:36.415Z,3.03
2023-04-04T09:35:24.792Z,2.70
2023-04-04T09:38:13.780Z,2.80
2023-04-04T09:41:02.361Z,2.47
2023-04-04T09:43:51.380Z,2.58
2023-04-04T09:46:42.314Z,2.60
2023-04-04T09:49:32.880Z,3.30
2023-04-04T09:52:21.558Z,3.00
2023-04-04T09:55:09.691Z,3.05
2023-04-04T09:57:57.765Z,2.90
2023-04-04T10:00:49.509Z,2.80
2023-04-04T10:03:40.525Z,2.92
2023-04-04T10:06:32.647Z,2.58
2023-04-04T10:09:20.976Z,2.40
2023-04-04T10:12:10.147Z,2.33
2023-04-04T10:15:01.456Z,2.30
2023-04-04T10:17:53.275Z,2.42
2023-04-04T10:20:49.431Z,2.28
2023-04-04T10:23:43.379Z,2.50
2023-04-04T10:26:31.832Z,2.40
2023-04-04T10:29:22.717Z,2.30
2023-04-04T10:32:17.577Z,2.40
2023-04-04T10:35:11.021Z,2.45
2023-04-04T10:38:01.221Z,2.33
2023-04-04T10:40:50.345Z,2.97
2023-04-04T10:43:42.216Z,2.40
2023-04-04T10:46:31.967Z,2.45
2023-04-04T10:49:21.835Z,2.50
2023-04-04T10:52:15.980Z,2.53
2023-04-04T10:57:55.473Z,2.40
2023-04-04T11:00:55.381Z,2.70
2023-04-04T11:04:21.852Z,2.30
2023-04-04T11:07:19.577Z,2.53
2023-04-04T11:10:21.684Z,2.22
2023-04-04T11:13:16.384Z,2.30
2023-04-04T11:16:16.404Z,2.60
2023-04-04T11:19:05.866Z,2.67
2023-04-04T11:21:55.524Z,2.70
2023-04-04T11:24:44.808Z,2.30
2023-04-04T11:27:33.701Z,2.50
2023-04-04T11:30:21.578Z,2.90
2023-04-04T11:33:12.708Z,2.50
2023-04-04T11:36:08.213Z,2.35
2023-04-04T11:38:58.677Z,2.08
2023-04-04T11:42:08.961Z,2.45
2023-04-04T11:45:03.995Z,2.63
2023-04-04T11:47:53.235Z,3.42
2023-04-04T11:50:41.680Z,2.80
2023-04-04T11:53:32.214Z,2.58
2023-04-04T11:56:20.862Z,2.92
2023-04-04T11:59:11.826Z,2.88
2023-04-04T12:02:01.369Z,2.97
2023-04-04T12:04:51.586Z,2.35
2023-04-04T12:07:39.993Z,2.45
2023-04-04T12:10:33.830Z,2.67
2023-04-04T12:13:21.538Z,2.50
2023-04-04T12:16:09.284Z,3.42
2023-04-04T12:19:02.385Z,2.80
2023-04-04T12:21:52.441Z,2.60
2023-04-04T12:24:40.167Z,2.72
2023-04-04T12:27:30.235Z,3.80
2023-04-04T12:30:24.165Z,3.10
2023-04-04T12:33:12.204Z,3.35
2023-04-04T12:36:03.411Z,2.67
2023-04-04T12:39:09.519Z,2.65
2023-04-04T12:42:07.425Z,2.83
2023-04-04T12:44:55.490Z,2.70
2023-04-04T12:47:56.237Z,2.75
2023-04-04T12:51:10.721Z,3.10
2023-04-04T12:53:59.895Z,2.95
2023-04-04T12:56:47.852Z,3.35
2023-04-04T12:59:37.336Z,3.00
2023-04-04T13:02:26.537Z,2.95
2023-04-04T13:05:14.667Z,3.08
2023-04-04T13:08:10.118Z,2.67
2023-04-04T13:11:06.280Z,3.15
2023-04-04T13:14:01.963Z,3.35
2023-04-04T13:17:06.426Z,2.95
2023-04-04T13:22:45.640Z,2.97
2023-04-04T13:25:33.951Z,3.10
2023-04-04T13:28:21.845Z,3.33
2023-04-04T13:31:13.429Z,3.38
2023-04-04T13:34:01.160Z,3.50
2023-04-04T13:36:53.376Z,2.72
2023-04-04T13:39:41.018Z,3.05
2023-04-04T13:42:32.006Z,2.85
2023-04-04T13:45:22.538Z,3.13
2023-04-04T13:48:13.298Z,3.38
2023-04-04T13:51:03.001Z,3.70
2023-04-04T13:53:52.928Z,2.85
2023-04-04T13:56:40.910Z,2.90
2023-04-04T13:59:28.546Z,3.22
2023-04-04T14:02:16.377Z,2.95
2023-04-04T14:05:04.535Z,3.50
2023-04-04T14:07:52.316Z,3.22
2023-04-04T14:10:39.936Z,3.08
2023-04-04T14:13:28.539Z,3.33
2023-04-04T14:16:16.523Z,2.95
2023-04-04T14:19:04.625Z,3.50
2023-04-04T14:21:52.570Z,2.67
2023-04-04T14:24:40.609Z,3.70
2023-04-04T14:27:28.474Z,3.13
2023-04-04T14:30:16.574Z,3.50
2023-04-04T14:33:04.454Z,3.40
2023-04-04T14:35:52.378Z,3.72
2023-04-04T14:38:40.530Z,3.42
2023-04-04T14:41:28.888Z,2.97
2023-04-04T14:44:16.619Z,3.25
2023-04-04T14:47:04.381Z,3.47
2023-04-04T14:49:54.216Z,3.15
2023-04-04T14:52:44.636Z,3.90
2023-04-04T14:55:35.649Z,3.75
2023-04-04T14:58:23.415Z,3.70
2023-04-04T15:01:14.652Z,3.67
2023-04-04T15:04:02.857Z,4.13
2023-04-04T15:06:53.652Z,4.50
2023-04-04T15:09:41.360Z,4.65
2023-04-04T15:12:28.883Z,3.58
2023-04-04T15:15:16.725Z,3.80
2023-04-04T15:18:04.462Z,4.03
2023-04-04T15:20:52.662Z,3.92
2023-04-04T15:23:40.607Z,3.90
2023-04-04T15:26:28.724Z,3.78
2023-04-04T15:29:16.336Z,3.72
2023-04-04T15:32:04.412Z,4.43
2023-04-04T15:34:52.253Z,3.45
2023-04-04T15:37:46.105Z,4.22
2023-04-04T15:40:34.038Z,3.53
2023-04-04T15:43:21.820Z,3.42
2023-04-04T15:46:09.458Z,4.75
2023-04-04T15:48:57.558Z,3.88
2023-04-04T15:51:46.143Z,4.50
2023-04-04T15:54:33.900Z,4.07
2023-04-04T15:57:21.593Z,3.80
2023-04-04T16:00:10.241Z,4.22
2023-04-04T16:02:58.725Z,4.57
2023-04-04T16:05:46.907Z,4.70
2023-04-04T16:08:34.388Z,4.43
2023-04-04T16:11:24.474Z,4.50
2023-04-04T16:14:12.806Z,4.15
2023-04-04T16:17:02.871Z,4.10
2023-04-04T16:19:51.265Z,4.25
2023-04-04T16:22:39.361Z,4.55
2023-04-04T16:25:27.716Z,4.53
2023-04-04T16:28:15.505Z,4.63
2023-04-04T16:31:03.619Z,4.63
2023-04-04T16:33:51.570Z,4.18
2023-04-04T16:36:42.289Z,4.75
2023-04-04T16:39:31.989Z,4.05
2023-04-04T16:42:19.816Z,4.20
2023-04-04T16:45:09.253Z,4.38
2023-04-04T16:47:57.318Z,4.28
2023-04-04T16:50:45.109Z,4.10
2023-04-04T16:53:32.578Z,3.80
2023-04-04T16:56:20.713Z,4.25
2023-04-04T16:59:08.492Z,4.43
2023-04-04T17:01:56.135Z,4.10
2023-04-04T17:04:44.954Z,3.88
2023-04-04T17:07:35.718Z,3.83
2023-04-04T17:10:23.568Z,4.35
2023-04-04T17:13:11.367Z,3.40
2023-04-04T17:15:59.312Z,4.43
2023-04-04T17:18:47.848Z,4.30
2023-04-04T17:21:38.082Z,4.57
2023-04-04T17:24:27.426Z,4.82
2023-04-04T17:27:15.700Z,3.95
2023-04-04T17:30:04.531Z,4.85
2023-04-04T17:32:54.414Z,4.95
2023-04-04T17:35:42.731Z,4.63
2023-04-04T17:38:31.068Z,4.55
2023-04-04T17:41:18.920Z,4.68
2023-04-04T17:44:06.499Z,5.47
2023-04-04T17:46:55.368Z,5.10
2023-04-04T17:49:42.952Z,4.45
2023-04-04T17:52:30.461Z,4.65
2023-04-04T17:55:18.049Z,5.40
2023-04-04T17:58:06.108Z,4.75
2023-04-04T18:00:56.318Z,5.05
2023-04-04T18:03:47.139Z,5.65
2023-04-04T18:06:35.991Z,4.63
2023-04-04T18:09:24.058Z,4.93
2023-04-04T18:12:12.262Z,4.85
2023-04-04T18:15:00.512Z,4.97
2023-04-04T18:17:48.154Z,5.20
2023-04-04T18:20:36.737Z,4.75
2023-04-04T18:23:26.094Z,5.70
2023-04-04T18:26:13.616Z,5.22
2023-04-04T18:29:01.057Z,5.47
2023-04-04T18:31:48.646Z,5.30
2023-04-04T18:34:38.845Z,5.97
2023-04-04T18:37:26.398Z,5.43
2023-04-04T18:40:14.181Z,6.03
2023-04-04T18:43:22.846Z,5.82
2023-04-04T18:46:10.342Z,6.28
2023-04-04T18:49:05.422Z,6.32
2023-04-04T18:51:56.182Z,6.32
2023-04-04T18:54:48.125Z,6.10
2023-04-04T18:57:38.074Z,5.55
2023-04-04T19:00:39.237Z,5.80
2023-04-04T19:03:27.422Z,6.53
2023-04-04T19:06:15.566Z,5.60
2023-04-04T19:09:04.459Z,5.78
2023-04-04T19:11:54.314Z,5.90
2023-04-04T19:14:45.238Z,6.07
2023-04-04T19:17:33.987Z,6.30
2023-04-04T19:20:24.172Z,5.85
2023-04-04T19:23:12.650Z,6.97
2023-04-04T19:26:02.545Z,6.57
2023-04-04T19:28:53.757Z,6.90
2023-04-04T19:31:44.672Z,6.70
2023-04-04T19:34:36.757Z,7.05
2023-04-04T19:37:27.383Z,7.18
2023-04-04T19:40:19.354Z,7.38
2023-04-04T19:43:07.442Z,7.43
2023-04-04T19:46:03.913Z,6.75
2023-04-04T19:48:53.986Z,8.00
2023-04-04T19:52:05.864Z,7.45
2023-04-04T19:54:56.650Z,7.30
2023-04-04T19:57:47.491Z,7.30
2023-04-04T20:00:38.399Z,7.70
2023-04-04T20:03:33.892Z,8.23
2023-04-04T20:06:32.333Z,8.93
2023-04-04T20:09:42.501Z,8.48
2023-04-04T20:12:32.617Z,8.95
2023-04-04T20:15:45.159Z,8.55
2023-04-04T20:18:43.574Z,8.70
2023-04-04T20:21:35.872Z,7.82
2023-04-04T20:24:24.372Z,8.35
2023-04-04T20:27:23.374Z,8.50
2023-04-04T20:30:14.854Z,8.25
2023-04-04T20:33:08.003Z,8.50
2023-04-04T20:36:05.935Z,8.43
2023-04-04T20:38:53.471Z,8.93
2023-04-04T20:41:41.222Z,8.52
2023-04-04T20:44:29.290Z,7.97
2023-04-04T20:47:44.018Z,8.27
2023-04-04T20:50:35.365Z,7.93
2023-04-04T20:53:31.641Z,7.88
2023-04-04T20:56:41.526Z,8.50
2023-04-04T20:59:34.934Z,6.70
2023-04-04T21:02:24.104Z,7.43
2023-04-04T21:05:34.500Z,6.20
2023-04-04T21:08:53.659Z,6.80
2023-04-04T21:11:44.350Z,7.03
2023-04-04T21:14:48.535Z,7.20
2023-04-04T21:17:36.529Z,8.00
2023-04-04T21:24:17.029Z,7.18
2023-04-04T21:27:51.848Z,7.47
2023-04-04T21:30:51.819Z,7.38
2023-04-04T21:33:58.858Z,7.00
2023-04-04T21:36:46.650Z,7.10
2023-04-04T21:39:36.405Z,8.00
2023-04-04T21:42:23.941Z,7.70
2023-04-04T21:45:11.509Z,7.60
2023-04-04T21:47:58.999Z,7.40
2023-04-04T21:50:50.212Z,8.32
2023-04-04T21:53:37.786Z,8.38
2023-04-04T21:56:27.627Z,8.10
2023-04-04T21:59:15.240Z,7.68
2023-04-04T22:02:02.826Z,8.07
2023-04-04T22:04:50.392Z,7.70
2023-04-04T22:07:38.193Z,7.97
2023-04-04T22:10:26.950Z,7.47
2023-04-04T22:13:17.358Z,7.82
2023-04-04T22:16:05.247Z,7.75
2023-04-04T22:18:52.840Z,8.15
2023-04-04T22:21:47.220Z,6.97
2023-04-04T22:24:34.787Z,7.90
2023-04-04T22:27:22.278Z,7.85
2023-04-04T22:30:10.174Z,9.23
2023-04-04T22:33:00.509Z,8.82
2023-04-04T22:35:48.514Z,9.15
2023-04-04T22:38:36.731Z,8.05
2023-04-04T22:41:27.386Z,8.80
2023-04-04T22:44:14.941Z,8.60
2023-04-04T22:47:02.628Z,8.43
2023-04-04T22:49:50.219Z,9.07
2023-04-04T22:52:41.699Z,7.90
2023-04-04T22:55:31.284Z,8.25
2023-04-04T22:58:20.649Z,7.93
2023-04-04T23:01:08.274Z,8.68
2023-04-04T23:03:56.031Z,8.13
2023-04-04T23:06:46.445Z,8.18
2023-04-04T23:09:34.428Z,7.97
2023-04-04T23:12:21.989Z,8.10
2023-04-04T23:15:10.151Z,7.53
2023-04-04T23:17:57.857Z,7.32
2023-04-04T23:20:45.775Z,7.63
2023-04-04T23:23:33.406Z,7.80
2023-04-04T23:26:21.157Z,7.45
2023-04-04T23:29:09.948Z,7.25
2023-04-04T23:31:58.050Z,8.40
2023-04-04T23:34:46.272Z,7.13
2023-04-04T23:37:34.375Z,7.05
2023-04-04T23:40:26.644Z,7.28
2023-04-04T23:43:14.249Z,7.53
2023-04-04T23:46:03.268Z,7.88
2023-04-04T23:48:52.403Z,7.65
2023-04-04T23:51:42.853Z,8.02
2023-04-04T23:54:30.450Z,8.35
2023-04-04T23:57:18.356Z,7.65
